createdAt,value
2023-02-26T00:01:32.998Z,4.35
2023-02-26T00:04:02.617Z,6.40
2023-02-26T00:06:32.892Z,7.63
2023-02-26T00:09:01.106Z,3.63
2023-02-26T00:11:29.322Z,3.38
2023-02-26T00:13:58.079Z,4.82
2023-02-26T00:16:29.496Z,6.65
2023-02-26T00:19:01.708Z,5.88
2023-02-26T00:21:30.862Z,3.60
2023-02-26T00:23:59.012Z,3.75
2023-02-26T00:26:28.269Z,4.80
2023-02-26T00:28:57.196Z,3.75
2023-02-26T00:31:25.452Z,2.85
2023-02-26T00:33:55.157Z,5.88
2023-02-26T00:36:35.159Z,4.50
2023-02-26T00:39:10.027Z,5.20
2023-02-26T00:41:38.240Z,5.65
2023-02-26T00:44:06.892Z,3.72
2023-02-26T00:46:42.999Z,4.88
2023-02-26T00:49:23.155Z,3.00
2023-02-26T00:51:55.851Z,3.30
2023-02-26T00:54:25.798Z,4.55
2023-02-26T00:56:54.387Z,3.97
2023-02-26T00:59:23.487Z,5.88
2023-02-26T01:01:52.246Z,4.80
2023-02-26T01:04:23.233Z,4.18
2023-02-26T01:06:55.773Z,5.50
2023-02-26T01:11:53.485Z,3.75
2023-02-26T01:14:22.385Z,5.07
2023-02-26T01:16:57.557Z,4.85
2023-02-26T01:19:33.485Z,5.72
2023-02-26T01:22:09.100Z,2.92
2023-02-26T01:24:37.285Z,3.65
2023-02-26T01:27:05.348Z,3.88
2023-02-26T01:29:33.757Z,4.07
2023-02-26T01:32:08.419Z,2.92
2023-02-26T01:34:42.238Z,2.47
2023-02-26T01:37:22.951Z,4.75
2023-02-26T01:40:13.110Z,5.70
2023-02-26T01:42:44.701Z,5.25
2023-02-26T01:45:16.143Z,5.82
2023-02-26T01:47:51.683Z,4.85
2023-02-26T01:50:25.735Z,4.60
2023-02-26T01:53:20.000Z,3.45
2023-02-26T01:55:54.236Z,3.60
2023-02-26T01:58:24.548Z,4.18
2023-02-26T02:00:52.575Z,3.33
2023-02-26T02:03:22.133Z,4.38
2023-02-26T02:05:53.785Z,4.40
2023-02-26T02:08:23.018Z,4.18
2023-02-26T02:10:52.569Z,5.00
2023-02-26T02:13:30.911Z,3.15
2023-02-26T02:16:17.374Z,3.35
2023-02-26T02:18:53.748Z,6.07
2023-02-26T02:21:41.245Z,4.40
2023-02-26T02:24:17.563Z,4.05
2023-02-26T02:27:00.319Z,3.40
2023-02-26T02:30:03.303Z,6.93
2023-02-26T02:32:37.267Z,5.03
2023-02-26T02:35:12.984Z,2.83
2023-02-26T02:37:47.288Z,3.50
2023-02-26T02:40:19.070Z,3.50
2023-02-26T02:42:52.448Z,4.00
2023-02-26T02:47:57.186Z,3.97
2023-02-26T02:50:30.907Z,4.93
2023-02-26T02:53:02.798Z,5.00
2023-02-26T02:55:34.546Z,5.20
2023-02-26T02:58:07.038Z,4.32
2023-02-26T03:00:39.361Z,3.45
2023-02-26T03:03:15.989Z,4.13
2023-02-26T03:05:43.832Z,3.55
2023-02-26T03:08:15.533Z,3.28
2023-02-26T03:10:43.949Z,3.72
2023-02-26T03:13:17.544Z,2.72
2023-02-26T03:15:54.071Z,5.85
2023-02-26T03:18:40.812Z,2.47
2023-02-26T03:21:14.400Z,2.33
2023-02-26T03:23:48.951Z,2.97
2023-02-26T03:26:28.216Z,3.58
2023-02-26T03:29:03.846Z,3.17
2023-02-26T03:31:36.106Z,3.60
2023-02-26T03:34:11.278Z,4.32
2023-02-26T03:36:44.634Z,3.33
2023-02-26T03:39:19.961Z,4.97
2023-02-26T03:41:56.075Z,2.72
2023-02-26T03:44:28.800Z,3.05
2023-02-26T03:47:01.571Z,3.50
2023-02-26T03:49:36.622Z,5.63
2023-02-26T03:52:05.443Z,3.97
2023-02-26T03:54:37.423Z,3.45
2023-02-26T03:57:05.634Z,2.33
2023-02-26T03:59:34.969Z,3.15
2023-02-26T04:02:04.958Z,3.75
2023-02-26T04:04:41.526Z,4.60
2023-02-26T04:07:10.403Z,6.35
2023-02-26T04:09:38.400Z,2.50
2023-02-26T04:12:06.238Z,3.90
2023-02-26T04:14:34.715Z,3.30
2023-02-26T04:17:02.548Z,3.25
2023-02-26T04:19:30.740Z,3.72
2023-02-26T04:22:00.158Z,3.35
2023-02-26T04:24:28.240Z,4.72
2023-02-26T04:26:56.069Z,2.92
2023-02-26T04:29:24.072Z,3.20
2023-02-26T04:31:53.361Z,2.70
2023-02-26T04:34:21.355Z,4.00
2023-02-26T04:36:49.199Z,2.60
2023-02-26T04:39:19.116Z,3.03
2023-02-26T04:41:47.044Z,2.22
2023-02-26T04:44:15.583Z,3.20
2023-02-26T04:46:43.584Z,3.25
2023-02-26T04:49:14.330Z,2.67
2023-02-26T04:51:48.157Z,2.63
2023-02-26T04:54:16.458Z,2.88
2023-02-26T04:56:45.763Z,4.05
2023-02-26T04:59:14.024Z,4.43
2023-02-26T05:01:41.893Z,2.42
2023-02-26T05:04:13.062Z,3.92
2023-02-26T05:06:41.119Z,2.75
2023-02-26T05:09:09.191Z,2.10
2023-02-26T05:11:36.899Z,4.25
2023-02-26T05:14:06.689Z,3.67
2023-02-26T05:16:34.414Z,2.63
2023-02-26T05:19:03.681Z,2.65
2023-02-26T05:21:31.414Z,5.10
2023-02-26T05:23:59.836Z,2.58
2023-02-26T05:26:27.626Z,5.03
2023-02-26T05:28:55.863Z,3.78
2023-02-26T05:31:24.919Z,3.08
2023-02-26T05:33:53.013Z,4.38
2023-02-26T05:36:20.591Z,3.15
2023-02-26T05:38:48.620Z,5.13
2023-02-26T05:41:16.332Z,3.78
2023-02-26T05:43:43.667Z,3.90
2023-02-26T05:46:11.776Z,2.65
2023-02-26T05:48:41.004Z,3.28
2023-02-26T05:51:09.039Z,4.47
2023-02-26T05:53:37.202Z,3.55
2023-02-26T05:56:05.936Z,4.68
2023-02-26T05:58:33.603Z,5.25
2023-02-26T06:01:01.853Z,2.80
2023-02-26T06:03:29.469Z,3.38
2023-02-26T06:05:59.279Z,5.88
2023-02-26T06:08:26.925Z,2.72
2023-02-26T06:10:54.950Z,3.67
2023-02-26T06:13:22.519Z,3.67
2023-02-26T06:15:50.834Z,3.85
2023-02-26T06:18:18.415Z,2.40
2023-02-26T06:20:46.428Z,3.17
2023-02-26T06:23:15.405Z,3.75
2023-02-26T06:25:43.703Z,3.85
2023-02-26T06:28:11.710Z,3.92
2023-02-26T06:30:39.693Z,3.83
2023-02-26T06:33:07.440Z,4.10
2023-02-26T06:35:35.379Z,4.88
2023-02-26T06:38:03.160Z,3.75
2023-02-26T06:40:32.798Z,4.15
2023-02-26T06:43:02.810Z,3.85
2023-02-26T06:45:31.025Z,3.50
2023-02-26T06:47:58.835Z,4.25
2023-02-26T06:50:26.821Z,3.85
2023-02-26T06:52:54.489Z,3.05
2023-02-26T06:55:22.603Z,4.55
2023-02-26T06:57:51.954Z,2.85
2023-02-26T07:00:20.537Z,5.43
2023-02-26T07:02:48.244Z,4.15
2023-02-26T07:05:16.673Z,3.70
2023-02-26T07:07:44.517Z,4.25
2023-02-26T07:10:13.660Z,4.15
2023-02-26T07:12:41.696Z,4.38
2023-02-26T07:15:11.733Z,3.83
2023-02-26T07:17:39.280Z,5.53
2023-02-26T07:20:11.065Z,4.47
2023-02-26T07:22:38.956Z,3.47
2023-02-26T07:25:07.845Z,4.43
2023-02-26T07:27:35.642Z,5.88
2023-02-26T07:30:06.174Z,3.33
2023-02-26T07:32:35.965Z,7.40
2023-02-26T07:35:06.613Z,2.92
2023-02-26T07:37:34.262Z,8.18
2023-02-26T07:40:02.575Z,5.13
2023-02-26T07:42:30.146Z,3.90
2023-02-26T07:44:58.370Z,5.57
2023-02-26T07:47:26.098Z,4.30
2023-02-26T07:49:55.632Z,4.05
2023-02-26T07:52:23.508Z,5.70
2023-02-26T07:54:52.319Z,5.20
2023-02-26T07:57:20.288Z,6.22
2023-02-26T07:59:48.558Z,4.82
2023-02-26T08:02:16.163Z,4.38
2023-02-26T08:04:44.414Z,4.65
2023-02-26T08:07:13.651Z,6.72
2023-02-26T08:09:41.987Z,3.53
2023-02-26T08:12:09.596Z,6.90
2023-02-26T08:14:37.668Z,5.03
2023-02-26T08:17:05.255Z,5.47
2023-02-26T08:19:33.602Z,6.10
2023-02-26T08:22:01.298Z,4.28
2023-02-26T08:24:30.761Z,6.97
2023-02-26T08:26:58.411Z,3.60
2023-02-26T08:29:26.500Z,4.68
2023-02-26T08:31:54.255Z,3.67
2023-02-26T08:34:22.531Z,4.72
2023-02-26T08:36:50.042Z,3.83
2023-02-26T08:39:19.872Z,5.32
2023-02-26T08:41:49.120Z,6.15
2023-02-26T08:44:17.372Z,5.53
2023-02-26T08:46:45.508Z,5.60
2023-02-26T08:49:13.680Z,5.65
2023-02-26T08:51:41.644Z,4.55
2023-02-26T08:54:09.894Z,4.68
2023-02-26T08:56:37.596Z,4.53
2023-02-26T08:59:07.946Z,5.28
2023-02-26T09:01:35.863Z,4.85
2023-02-26T09:04:04.159Z,5.82
2023-02-26T09:06:32.134Z,5.07
2023-02-26T09:09:00.232Z,4.93
2023-02-26T09:11:28.232Z,4.38
2023-02-26T09:13:56.495Z,6.03
2023-02-26T09:16:25.980Z,4.03
2023-02-26T09:18:54.275Z,5.25
2023-02-26T09:21:22.374Z,5.03
2023-02-26T09:23:50.793Z,5.03
2023-02-26T09:26:18.451Z,6.30
2023-02-26T09:28:46.385Z,4.13
2023-02-26T09:31:14.032Z,5.45
2023-02-26T09:33:43.924Z,6.65
2023-02-26T09:36:11.700Z,3.80
2023-02-26T09:38:39.840Z,7.10
2023-02-26T09:41:16.949Z,3.88
2023-02-26T09:44:16.467Z,5.45
2023-02-26T09:46:51.308Z,4.35
2023-02-26T09:49:33.281Z,4.68
2023-02-26T09:52:17.033Z,3.08
2023-02-26T09:54:52.966Z,3.78
2023-02-26T09:57:31.003Z,3.60
2023-02-26T09:59:59.635Z,4.57
2023-02-26T10:02:37.558Z,3.70
2023-02-26T10:05:24.655Z,10.10
2023-02-26T10:07:58.583Z,4.43
2023-02-26T10:10:35.781Z,3.33
2023-02-26T10:13:04.107Z,3.15
2023-02-26T10:15:39.427Z,4.38
2023-02-26T10:18:14.493Z,4.15
2023-02-26T10:20:57.022Z,3.95
2023-02-26T10:23:32.430Z,3.65
2023-02-26T10:26:08.208Z,3.85
2023-02-26T10:28:51.096Z,5.72
2023-02-26T10:31:27.244Z,3.40
2023-02-26T10:34:04.545Z,5.80
2023-02-26T10:36:44.849Z,4.57
2023-02-26T10:39:24.080Z,5.22
2023-02-26T10:41:52.993Z,5.63
2023-02-26T10:44:27.547Z,5.18
2023-02-26T10:47:03.769Z,4.20
2023-02-26T10:49:43.703Z,2.70
2023-02-26T10:52:17.347Z,4.93
2023-02-26T10:54:53.853Z,3.10
2023-02-26T10:57:27.524Z,4.15
2023-02-26T10:59:55.547Z,3.28
2023-02-26T11:02:39.087Z,4.45
2023-02-26T11:05:14.141Z,8.27
2023-02-26T11:07:46.071Z,3.78
2023-02-26T11:10:17.377Z,3.92
2023-02-26T11:12:45.998Z,3.65
2023-02-26T11:15:15.446Z,3.53
2023-02-26T11:17:45.607Z,5.00
2023-02-26T11:20:19.855Z,4.25
2023-02-26T11:22:52.938Z,5.85
2023-02-26T11:25:24.406Z,4.55
2023-02-26T11:28:00.171Z,6.30
2023-02-26T11:30:31.825Z,7.40
2023-02-26T11:33:07.805Z,5.18
2023-02-26T11:35:35.587Z,4.43
2023-02-26T11:38:05.231Z,4.05
2023-02-26T11:40:37.581Z,5.05
2023-02-26T11:45:37.223Z,6.20
2023-02-26T11:48:08.356Z,3.90
2023-02-26T11:50:43.149Z,4.82
2023-02-26T11:53:20.416Z,5.03
2023-02-26T11:55:52.809Z,5.55
2023-02-26T12:00:51.436Z,4.07
2023-02-26T12:03:22.309Z,4.93
2023-02-26T12:05:50.570Z,4.43
2023-02-26T12:08:27.751Z,2.90
2023-02-26T12:11:13.469Z,3.47
2023-02-26T12:13:52.082Z,4.03
2023-02-26T12:16:28.022Z,4.13
2023-02-26T12:19:04.450Z,3.45
2023-02-26T12:21:52.389Z,5.65
2023-02-26T12:25:00.290Z,6.18
2023-02-26T12:27:39.945Z,5.07
2023-02-26T12:30:24.796Z,4.80
2023-02-26T12:33:07.819Z,4.25
2023-02-26T12:35:59.900Z,3.97
2023-02-26T12:38:36.603Z,6.45
2023-02-26T12:41:39.899Z,4.95
2023-02-26T12:44:17.336Z,4.57
2023-02-26T12:46:59.792Z,6.18
2023-02-26T12:49:51.184Z,5.05
2023-02-26T12:55:07.406Z,2.70
2023-02-26T12:58:11.231Z,3.22
2023-02-26T13:00:53.768Z,3.15
2023-02-26T13:03:43.591Z,3.63
2023-02-26T13:06:51.176Z,3.83
2023-02-26T13:09:32.192Z,4.40
2023-02-26T13:12:12.777Z,5.38
2023-02-26T13:14:51.851Z,7.45
2023-02-26T13:17:28.746Z,6.93
2023-02-26T13:20:00.726Z,4.03
2023-02-26T13:22:32.737Z,5.78
2023-02-26T13:25:04.457Z,6.72
2023-02-26T13:27:35.276Z,4.22
2023-02-26T13:30:20.117Z,3.72
2023-02-26T13:32:51.416Z,4.38
2023-02-26T13:35:25.518Z,5.05
2023-02-26T13:37:55.853Z,5.40
2023-02-26T13:40:46.828Z,4.65
2023-02-26T13:43:52.983Z,4.93
2023-02-26T13:46:39.612Z,3.45
2023-02-26T13:49:14.699Z,4.25
2023-02-26T13:51:45.215Z,4.63
2023-02-26T13:54:43.866Z,3.78
2023-02-26T13:57:35.010Z,5.05
2023-02-26T14:00:09.898Z,5.80
2023-02-26T14:02:48.835Z,7.53
2023-02-26T14:05:52.718Z,7.00
2023-02-26T14:08:41.940Z,5.97
2023-02-26T14:11:37.040Z,5.03
2023-02-26T14:14:30.879Z,3.03
2023-02-26T14:17:27.982Z,4.70
2023-02-26T14:20:18.823Z,5.43
2023-02-26T14:22:50.363Z,4.70
2023-02-26T14:25:27.214Z,3.40
2023-02-26T14:28:21.105Z,2.65
2023-02-26T14:30:53.396Z,3.92
2023-02-26T14:33:29.588Z,3.65
2023-02-26T14:35:59.687Z,5.57
2023-02-26T14:38:33.505Z,4.47
2023-02-26T14:41:13.737Z,8.88
2023-02-26T14:43:44.671Z,6.93
2023-02-26T14:46:13.407Z,4.18
2023-02-26T14:48:41.171Z,3.28
2023-02-26T14:51:22.348Z,2.05
2023-02-26T14:54:08.175Z,2.80
2023-02-26T14:56:52.166Z,1.70
2023-02-26T14:59:36.895Z,1.20
2023-02-26T15:02:23.122Z,3.15
2023-02-26T15:05:12.940Z,1.98
2023-02-26T15:08:14.929Z,3.13
2023-02-26T15:11:00.096Z,3.13
2023-02-26T15:16:15.122Z,3.33
2023-02-26T15:21:27.426Z,2.53
2023-02-26T15:24:00.592Z,2.38
2023-02-26T15:26:31.428Z,2.72
2023-02-26T15:29:02.693Z,4.18
2023-02-26T15:31:36.298Z,3.15
2023-02-26T15:34:04.852Z,4.78
2023-02-26T15:36:35.461Z,4.18
2023-02-26T15:39:07.285Z,3.03
2023-02-26T15:41:35.573Z,3.03
2023-02-26T15:44:07.548Z,5.93
2023-02-26T15:46:38.707Z,3.85
2023-02-26T15:49:09.785Z,3.30
2023-02-26T15:51:38.096Z,4.03
2023-02-26T15:54:07.683Z,5.60
2023-02-26T15:56:38.734Z,4.30
2023-02-26T15:59:11.267Z,4.25
2023-02-26T16:01:43.153Z,5.25
2023-02-26T16:04:14.895Z,24.83
2023-02-26T16:06:44.425Z,10.85
2023-02-26T16:09:19.326Z,22.13
2023-02-26T16:11:49.462Z,8.90
2023-02-26T16:14:24.996Z,16.70
2023-02-26T16:16:54.617Z,11.25
2023-02-26T16:19:32.453Z,30.20
2023-02-26T16:22:03.313Z,26.23
2023-02-26T16:24:33.918Z,22.70
2023-02-26T16:27:05.572Z,19.10
2023-02-26T16:29:35.781Z,20.45
2023-02-26T16:32:11.503Z,21.27
2023-02-26T16:34:42.755Z,18.75
2023-02-26T16:37:18.384Z,12.82
2023-02-26T16:39:52.970Z,10.60
2023-02-26T16:42:31.881Z,7.78
2023-02-26T16:45:14.626Z,10.02
2023-02-26T16:47:42.536Z,9.07
2023-02-26T16:50:17.521Z,8.13
2023-02-26T16:52:48.619Z,6.80
2023-02-26T16:55:18.393Z,6.57
2023-02-26T16:57:47.117Z,4.88
2023-02-26T17:00:23.211Z,7.88
2023-02-26T17:02:50.935Z,6.22
2023-02-26T17:05:23.494Z,6.85
2023-02-26T17:07:54.984Z,7.15
2023-02-26T17:10:32.356Z,8.07
2023-02-26T17:13:12.494Z,7.15
2023-02-26T17:15:41.171Z,9.25
2023-02-26T17:18:08.861Z,11.13
2023-02-26T17:20:38.083Z,9.38
2023-02-26T17:23:08.485Z,6.53
2023-02-26T17:25:41.861Z,8.55
2023-02-26T17:28:15.399Z,8.43
2023-02-26T17:30:45.977Z,8.05
2023-02-26T17:33:13.949Z,8.98
2023-02-26T17:35:43.080Z,10.48
2023-02-26T17:38:14.806Z,7.38
2023-02-26T17:40:45.449Z,10.27
2023-02-26T17:43:13.292Z,9.57
2023-02-26T17:45:42.257Z,7.32
2023-02-26T17:48:13.326Z,8.65
2023-02-26T17:50:45.040Z,7.55
2023-02-26T17:53:12.848Z,11.40
2023-02-26T17:55:41.325Z,8.55
2023-02-26T17:58:15.907Z,6.40
2023-02-26T18:00:44.012Z,10.60
2023-02-26T18:03:11.782Z,6.95
2023-02-26T18:05:39.969Z,5.60
2023-02-26T18:08:15.576Z,6.03
2023-02-26T18:10:43.707Z,8.88
2023-02-26T18:13:13.186Z,7.53
2023-02-26T18:15:41.579Z,8.35
2023-02-26T18:18:11.316Z,8.38
2023-02-26T18:20:40.176Z,10.18
2023-02-26T18:23:11.776Z,7.47
2023-02-26T18:25:41.372Z,7.38
2023-02-26T18:28:15.649Z,8.63
2023-02-26T18:30:45.097Z,8.57
2023-02-26T18:33:13.533Z,10.88
2023-02-26T18:35:41.638Z,9.82
2023-02-26T18:38:11.589Z,12.98
2023-02-26T18:40:40.214Z,8.45
2023-02-26T18:43:07.885Z,8.80
2023-02-26T18:45:38.077Z,11.25
2023-02-26T18:48:05.839Z,10.43
2023-02-26T18:50:34.435Z,9.52
2023-02-26T18:53:02.349Z,10.52
2023-02-26T18:55:31.013Z,8.82
2023-02-26T18:57:58.954Z,12.82
2023-02-26T19:00:27.456Z,13.23
2023-02-26T19:02:57.373Z,12.55
2023-02-26T19:05:25.616Z,12.30
2023-02-26T19:07:54.754Z,15.80
2023-02-26T19:10:22.719Z,10.32
2023-02-26T19:12:51.054Z,8.75
2023-02-26T19:15:20.440Z,13.00
2023-02-26T19:17:48.522Z,11.50
2023-02-26T19:20:18.481Z,11.43
2023-02-26T19:22:46.870Z,8.98
2023-02-26T19:25:14.796Z,12.70
2023-02-26T19:27:43.062Z,10.27
2023-02-26T19:30:11.772Z,10.55
2023-02-26T19:32:39.824Z,11.40
2023-02-26T19:35:08.645Z,13.90
2023-02-26T19:37:38.461Z,16.60
2023-02-26T19:40:07.503Z,12.77
2023-02-26T19:42:35.848Z,14.65
2023-02-26T19:45:04.489Z,14.50
2023-02-26T19:47:32.761Z,14.40
2023-02-26T19:50:00.613Z,10.90
2023-02-26T19:52:28.808Z,16.90
2023-02-26T19:54:59.524Z,15.55
2023-02-26T19:57:29.968Z,11.07
2023-02-26T19:59:58.129Z,17.23
2023-02-26T20:02:26.483Z,18.38
2023-02-26T20:04:56.582Z,15.68
2023-02-26T20:07:26.625Z,15.38
2023-02-26T20:09:54.230Z,16.95
2023-02-26T20:12:23.841Z,12.88
2023-02-26T20:14:51.758Z,14.00
2023-02-26T20:17:19.937Z,10.15
2023-02-26T20:19:49.964Z,8.25
2023-02-26T20:22:18.727Z,7.93
2023-02-26T20:24:46.526Z,10.90
2023-02-26T20:27:15.143Z,11.00
2023-02-26T20:29:44.541Z,8.93
2023-02-26T20:32:13.130Z,7.75
2023-02-26T20:34:40.999Z,11.23
2023-02-26T20:37:09.344Z,8.15
2023-02-26T20:39:37.149Z,7.85
2023-02-26T20:42:05.544Z,9.18
2023-02-26T20:44:33.461Z,4.93
2023-02-26T20:47:03.349Z,8.73
2023-02-26T20:49:31.390Z,10.70
2023-02-26T20:51:59.409Z,10.90
2023-02-26T20:54:27.465Z,9.55
2023-02-26T20:56:55.538Z,11.05
2023-02-26T20:59:23.297Z,12.77
2023-02-26T21:01:51.462Z,8.10
2023-02-26T21:04:20.852Z,7.40
2023-02-26T21:06:49.224Z,9.52
2023-02-26T21:09:16.934Z,9.60
2023-02-26T21:11:45.522Z,11.05
2023-02-26T21:14:13.313Z,12.75
2023-02-26T21:16:41.824Z,15.48
2023-02-26T21:19:09.506Z,15.18
2023-02-26T21:21:39.253Z,14.38
2023-02-26T21:24:07.539Z,13.98
2023-02-26T21:26:35.831Z,10.40
2023-02-26T21:29:03.585Z,10.18
2023-02-26T21:31:31.758Z,10.40
2023-02-26T21:34:17.323Z,11.07
2023-02-26T21:36:52.013Z,8.82
2023-02-26T21:39:19.757Z,6.55
2023-02-26T21:41:48.034Z,10.85
2023-02-26T21:44:15.903Z,10.18
2023-02-26T21:46:43.854Z,8.90
2023-02-26T21:49:11.960Z,11.13
2023-02-26T21:51:43.188Z,8.10
2023-02-26T21:54:12.476Z,9.90
2023-02-26T21:56:40.625Z,13.05
2023-02-26T21:59:08.727Z,10.38
2023-02-26T22:01:39.911Z,8.90
2023-02-26T22:04:08.378Z,12.13
2023-02-26T22:06:36.989Z,8.35
2023-02-26T22:09:05.120Z,8.57
2023-02-26T22:11:34.898Z,8.32
2023-02-26T22:14:02.830Z,11.27
2023-02-26T22:16:30.878Z,8.35
2023-02-26T22:18:58.668Z,7.45
2023-02-26T22:21:27.072Z,7.47
2023-02-26T22:23:55.033Z,6.07
2023-02-26T22:26:23.531Z,6.55
2023-02-26T22:28:52.532Z,8.63
2023-02-26T22:31:20.651Z,10.45
2023-02-26T22:33:48.246Z,9.75
2023-02-26T22:36:16.375Z,6.40
2023-02-26T22:38:44.158Z,7.90
2023-02-26T22:41:12.219Z,6.97
2023-02-26T22:43:39.814Z,10.13
2023-02-26T22:46:09.459Z,6.50
2023-02-26T22:48:37.118Z,28.52
2023-02-26T22:51:05.566Z,14.85
2023-02-26T22:53:33.620Z,10.30
2023-02-26T22:56:02.007Z,12.13
2023-02-26T22:58:32.321Z,12.25
2023-02-26T23:01:01.824Z,10.07
2023-02-26T23:03:31.974Z,12.85
2023-02-26T23:06:00.880Z,22.50
2023-02-26T23:08:28.901Z,23.33
2023-02-26T23:10:58.410Z,32.85
2023-02-26T23:13:26.999Z,32.20
2023-02-26T23:15:55.401Z,27.00
2023-02-26T23:18:23.335Z,30.67
2023-02-26T23:20:53.443Z,29.20
2023-02-26T23:23:21.109Z,32.03
2023-02-26T23:25:49.242Z,34.10
2023-02-26T23:28:16.879Z,25.45
2023-02-26T23:30:45.273Z,31.58
2023-02-26T23:33:13.482Z,21.42
2023-02-26T23:35:41.408Z,29.85
2023-02-26T23:38:10.470Z,17.05
2023-02-26T23:40:40.856Z,8.90
2023-02-26T23:43:08.393Z,9.27
2023-02-26T23:45:36.418Z,15.07
2023-02-26T23:48:04.257Z,7.38
2023-02-26T23:50:32.460Z,11.43
2023-02-26T23:53:00.053Z,13.77
2023-02-26T23:55:29.551Z,9.05
2023-02-26T23:57:57.334Z,8.10
